EmailTwitter


Surface observations / United Kingdom / EGUB (03658)

Regions: Quebec | Canada | USA | Europe | France | UK | Elsewhere
Station
Display
Info & Location for EGUB (03658) | Help decoding METAR

Weather Conditions observed on 2020/08/08 at 01:50 UTC at BENSON RAF, UK (EGUB)

Temperature: 17.0 Celsius.

Dewpoint: 16.0 Celsius.

Relative Humidity: 94%

Humidex: 22.

Winds: Northeast at 4 km/h or 2 knots.

Mean Sea level Pressure: 101.80 kilopascals.

Coded METAR:

EGUB 080150Z AUTO 03002KT //// // ///////// 17/16 Q1018=